Hovedside
METAR-TAF:

METAR-TAF

Lufthavner :

Ivato lufthavn

Antananarivo, Madagaskar

breddegrad: 18-48S, lengdegrad: 047-29E, høyde over havet: 1279 m

Gjeldene værobservasjon

Denne rapporten ble laget for 41 minutter siden, klokken 10:00 UTC
Vind 12 kt fra Øst-sørøst, skiftende mellom Øst og Sør-sørøst
Temperatur 20°C
Luftfuktighet 49%
Trykk 1025 hPa
Sikt 10 km eller mer
Brutte skyer i en høyde av 2300 ft

METAR: FMMI 091000Z 12012KT 100V160 9999 BKN023 20/09 Q1025 NOSIG

Tid: 13:41 (10:41 UTC)

Varsel

Denne rapporten ble laget for 5 timer og 41 minutter siden, klokken 05:00 UTC
Varsel gyldig fra 09. klokken 06 UTC til 10. klokken 12 UTC
Vind 10 kt fra Sørøst
Sikt 10 km eller mer
Få skyer i en høyde av 1700 ft
Spredte skyer i en høyde av 2000 ft

TAF: FMMI 090500Z 0906/1012 14010KT 9999 FEW017 SCT020

Værobservasjoner og værvarsel for over 4000 flyplasser (METAR- og TAF-rapporter).

Tilgjengelige stasjoner er representert av de røde og gule prikkene på kartet.

Hold musepekeren over prikken for å se navnet på stasjonen.

Klikk så for å se værobservasjoner og -varsler.

For å forandre kartet kan du klikke på den grønne knappen med svart kryss for å zoome inn, på den grønne knappen med strek for å zoome ut, eller på de grønne pilene for å se tilstøtende kart.


METAR-TAF: